createdAt,value
2019-03-11T00:02:14.081Z,98108.23
2019-03-11T00:04:45.809Z,98112.95
2019-03-11T00:07:16.434Z,98111.79
2019-03-11T00:09:48.158Z,98128.34
2019-03-11T00:12:19.512Z,98111.59
2019-03-11T00:14:49.784Z,98117.93
2019-03-11T00:17:20.334Z,98120.92
2019-03-11T00:19:50.968Z,98121.95
2019-03-11T00:22:21.589Z,98130.72
2019-03-11T00:24:51.893Z,98131.23
2019-03-11T00:27:22.454Z,98127.88
2019-03-11T00:29:52.905Z,98128.25
2019-03-11T00:32:23.102Z,98126.93
2019-03-11T00:34:53.714Z,98138.38
2019-03-11T00:37:23.977Z,98145.56
2019-03-11T00:39:54.181Z,98163.48
2019-03-11T00:42:24.664Z,98170.86
2019-03-11T00:44:55.227Z,98180.33
2019-03-11T00:47:25.505Z,98189.61
2019-03-11T00:49:56.072Z,98183.53
2019-03-11T00:52:26.815Z,98210.72
2019-03-11T00:54:57.401Z,98205.86
2019-03-11T00:57:27.698Z,98210.59
2019-03-11T00:59:57.916Z,98203.95
2019-03-11T01:02:28.126Z,98198.52
2019-03-11T01:04:58.324Z,98201.19
2019-03-11T01:07:28.546Z,98222.96
2019-03-11T01:09:58.757Z,98236.07
2019-03-11T01:12:28.990Z,98238.08
2019-03-11T01:14:59.195Z,98228.48
2019-03-11T01:17:29.421Z,98238.42
2019-03-11T01:19:59.645Z,98233.58
2019-03-11T01:22:29.852Z,98251.80
2019-03-11T01:25:00.256Z,98261.07
2019-03-11T01:27:31.034Z,98271.89
2019-03-11T01:30:01.700Z,98293.49
2019-03-11T01:32:32.519Z,98315.01
2019-03-11T01:35:02.746Z,98323.73
2019-03-11T01:37:32.951Z,98344.40
2019-03-11T01:40:03.205Z,98355.43
2019-03-11T01:42:33.418Z,98367.38
2019-03-11T01:45:05.258Z,98395.54
2019-03-11T01:47:35.846Z,98411.70
2019-03-11T01:50:08.178Z,98425.13
2019-03-11T01:52:38.418Z,98436.77
2019-03-11T01:55:14.044Z,98460.73
2019-03-11T01:57:44.431Z,98467.37
2019-03-11T02:00:17.051Z,98479.31
2019-03-11T02:02:47.361Z,98488.32
2019-03-11T02:05:17.901Z,98500.37
2019-03-11T02:07:48.176Z,98508.16
2019-03-11T02:10:19.514Z,98515.36
2019-03-11T02:12:50.076Z,98524.67
2019-03-11T02:15:20.739Z,98531.62
2019-03-11T02:17:51.291Z,98550.00
2019-03-11T02:20:21.937Z,98558.50
2019-03-11T02:22:52.207Z,98573.19
2019-03-11T02:25:22.772Z,98577.45
2019-03-11T02:27:53.045Z,98586.86
2019-03-11T02:30:23.328Z,98596.75
2019-03-11T02:32:53.877Z,98612.72
2019-03-11T02:35:29.378Z,98634.96
2019-03-11T02:38:00.574Z,98632.77
2019-03-11T02:40:31.589Z,98650.86
2019-03-11T02:43:01.893Z,98664.63
2019-03-11T02:45:32.517Z,98681.70
2019-03-11T02:48:02.785Z,98685.16
2019-03-11T02:50:33.022Z,98694.22
2019-03-11T02:53:03.228Z,98706.14
2019-03-11T02:55:33.452Z,98718.16
2019-03-11T02:58:05.259Z,98729.70
2019-03-11T03:00:35.831Z,98744.66
2019-03-11T03:03:09.139Z,98754.07
2019-03-11T03:05:43.893Z,98771.64
2019-03-11T03:08:14.521Z,98778.92
2019-03-11T03:10:45.408Z,98765.52
2019-03-11T03:13:15.684Z,98769.53
2019-03-11T03:15:46.279Z,98784.09
2019-03-11T03:18:16.546Z,98799.13
2019-03-11T03:20:46.795Z,98808.91
2019-03-11T03:23:17.030Z,98815.80
2019-03-11T03:25:47.582Z,98831.23
2019-03-11T03:28:18.406Z,98830.31
2019-03-11T03:30:48.608Z,98836.28
2019-03-11T03:33:18.927Z,98850.38
2019-03-11T03:35:49.123Z,98859.16
2019-03-11T03:38:30.272Z,98866.91
2019-03-11T03:40:52.077Z,98859.16
2019-03-11T03:43:22.802Z,98870.23
2019-03-11T03:45:53.151Z,98869.30
2019-03-11T03:48:23.768Z,98881.24
2019-03-11T03:50:54.079Z,98886.16
2019-03-11T03:53:24.304Z,98880.63
2019-03-11T03:55:54.508Z,98891.25
2019-03-11T03:58:24.744Z,98894.43
2019-03-11T04:00:54.980Z,98921.17
2019-03-11T04:03:25.201Z,98930.57
2019-03-11T04:05:55.478Z,98932.91
2019-03-11T04:08:25.712Z,98941.97
2019-03-11T04:10:55.933Z,98951.02
2019-03-11T04:13:26.167Z,98953.33
2019-03-11T04:15:56.366Z,98961.19
2019-03-11T04:18:29.634Z,98966.40
2019-03-11T04:21:00.019Z,98973.58
2019-03-11T04:23:30.293Z,98988.55
2019-03-11T04:26:00.883Z,98997.16
2019-03-11T04:28:31.192Z,99006.16
2019-03-11T04:31:01.842Z,99007.05
2019-03-11T04:33:32.542Z,99017.77
2019-03-11T04:36:03.164Z,99020.70
2019-03-11T04:38:35.421Z,99034.78
2019-03-11T04:41:06.051Z,99044.67
2019-03-11T04:43:37.847Z,99041.77
2019-03-11T04:46:08.476Z,99054.20
2019-03-11T04:48:39.109Z,99056.52
2019-03-11T04:51:09.756Z,99063.83
2019-03-11T04:53:40.395Z,99072.98
2019-03-11T04:56:10.670Z,99076.92
2019-03-11T04:58:41.226Z,99087.73
2019-03-11T05:01:11.523Z,99097.80
2019-03-11T05:03:41.747Z,99113.70
2019-03-11T05:06:11.955Z,99103.89
2019-03-11T05:08:42.159Z,99103.49
2019-03-11T05:11:12.390Z,99107.27
2019-03-11T05:13:42.617Z,99104.30
2019-03-11T05:16:13.174Z,99112.90
2019-03-11T05:18:43.473Z,99114.66
2019-03-11T05:21:13.696Z,99121.09
2019-03-11T05:23:45.354Z,99127.13
2019-03-11T05:26:15.659Z,99136.03
2019-03-11T05:28:45.903Z,99140.25
2019-03-11T05:31:16.512Z,99150.59
2019-03-11T05:33:46.839Z,99149.81
2019-03-11T05:36:17.419Z,99153.34
2019-03-11T05:38:47.705Z,99162.78
2019-03-11T05:41:18.265Z,99168.31
2019-03-11T05:43:49.686Z,99178.20
2019-03-11T05:46:20.272Z,99187.42
2019-03-11T05:48:50.565Z,99188.18
2019-03-11T05:51:30.857Z,99190.18
2019-03-11T05:53:52.686Z,99205.24
2019-03-11T05:56:23.295Z,99207.41
2019-03-11T05:58:53.917Z,99207.79
2019-03-11T06:01:25.039Z,99210.69
2019-03-11T06:03:55.595Z,99218.16
2019-03-11T06:06:26.248Z,99212.31
2019-03-11T06:08:57.738Z,99218.88
2019-03-11T06:11:28.517Z,99233.84
2019-03-11T06:14:00.313Z,99242.75
2019-03-11T06:16:30.712Z,99240.02
2019-03-11T06:19:01.258Z,99230.45
2019-03-11T06:21:36.673Z,99252.43
2019-03-11T06:24:06.942Z,99261.28
2019-03-11T06:26:37.163Z,99274.91
2019-03-11T06:29:07.374Z,99266.31
2019-03-11T06:31:37.944Z,99259.13
2019-03-11T06:34:08.255Z,99273.22
2019-03-11T06:36:38.458Z,99292.98
2019-03-11T06:39:08.757Z,99275.23
2019-03-11T06:41:39.007Z,99286.32
2019-03-11T06:44:09.227Z,99274.42
2019-03-11T06:46:39.440Z,99291.56
2019-03-11T06:49:10.717Z,99295.36
2019-03-11T06:51:41.275Z,99291.46
2019-03-11T06:54:11.554Z,99291.81
2019-03-11T06:56:41.810Z,99294.91
2019-03-11T06:59:12.019Z,99294.64
2019-03-11T07:01:42.228Z,99309.41
2019-03-11T07:04:12.459Z,99321.69
2019-03-11T07:06:42.705Z,99316.69
2019-03-11T07:09:13.306Z,99333.91
2019-03-11T07:11:43.571Z,99334.45
2019-03-11T07:14:14.149Z,99341.11
2019-03-11T07:16:44.816Z,99350.78
2019-03-11T07:19:15.464Z,99344.03
2019-03-11T07:21:46.065Z,99334.41
2019-03-11T07:24:16.353Z,99344.83
2019-03-11T07:26:47.747Z,99342.62
2019-03-11T07:29:18.310Z,99352.47
2019-03-11T07:31:48.598Z,99348.98
2019-03-11T07:34:18.903Z,99359.42
2019-03-11T07:36:49.157Z,99348.44
2019-03-11T07:39:19.709Z,99360.58
2019-03-11T07:41:50.334Z,99364.19
2019-03-11T07:44:20.952Z,99368.64
2019-03-11T07:46:51.597Z,99373.68
2019-03-11T07:49:21.873Z,99368.00
2019-03-11T07:51:52.092Z,99366.55
2019-03-11T07:54:22.643Z,99385.66
2019-03-11T07:56:52.936Z,99374.06
2019-03-11T07:59:23.150Z,99391.23
2019-03-11T08:01:53.755Z,99402.77
2019-03-11T08:04:24.035Z,99404.27
2019-03-11T08:06:54.657Z,99402.12
2019-03-11T08:09:37.042Z,99421.42
2019-03-11T08:11:57.368Z,99424.10
2019-03-11T08:14:28.059Z,99425.02
2019-03-11T08:16:58.738Z,99420.38
2019-03-11T08:19:29.370Z,99433.41
2019-03-11T08:22:00.006Z,99440.16
2019-03-11T08:24:30.315Z,99440.38
2019-03-11T08:27:00.515Z,99445.02
2019-03-11T08:29:30.722Z,99441.52
2019-03-11T08:32:00.925Z,99455.70
2019-03-11T08:34:31.149Z,99464.54
2019-03-11T08:37:01.380Z,99468.89
2019-03-11T08:39:31.581Z,99480.89
2019-03-11T08:42:01.819Z,99496.95
2019-03-11T08:44:32.360Z,99509.77
2019-03-11T08:47:02.965Z,99491.44
2019-03-11T08:49:33.252Z,99484.52
2019-03-11T08:52:05.464Z,99456.28
2019-03-11T08:54:35.947Z,99460.67
2019-03-11T08:57:06.472Z,99455.92
2019-03-11T08:59:37.100Z,99469.98
2019-03-11T09:02:07.304Z,99475.93
2019-03-11T09:04:37.880Z,99481.13
2019-03-11T09:07:08.512Z,99496.41
2019-03-11T09:09:39.159Z,99488.59
2019-03-11T09:12:11.049Z,99501.01
2019-03-11T09:14:41.314Z,99507.67
2019-03-11T09:17:11.905Z,99514.22
2019-03-11T09:19:42.173Z,99510.16
2019-03-11T09:22:12.405Z,99512.13
2019-03-11T09:24:42.653Z,99512.81
2019-03-11T09:27:12.870Z,99483.34
2019-03-11T09:29:43.085Z,99501.23
2019-03-11T09:32:13.310Z,99506.92
2019-03-11T09:34:43.873Z,99517.50
2019-03-11T09:37:14.151Z,99501.31
2019-03-11T09:39:44.379Z,99509.08
2019-03-11T09:42:14.586Z,99507.45
2019-03-11T09:44:44.802Z,99513.02
2019-03-11T09:47:15.094Z,99515.72
2019-03-11T09:49:45.656Z,99517.12
2019-03-11T09:52:16.361Z,99523.91
2019-03-11T09:54:46.670Z,99518.92
2019-03-11T09:57:17.342Z,99528.05
2019-03-11T09:59:47.619Z,99551.53
2019-03-11T10:02:18.240Z,99535.87
2019-03-11T10:04:49.047Z,99520.48
2019-03-11T10:07:19.666Z,99521.04
2019-03-11T10:09:50.306Z,99528.89
2019-03-11T10:12:20.755Z,99542.13
2019-03-11T10:14:50.975Z,99524.02
2019-03-11T10:17:21.248Z,99541.69
2019-03-11T10:19:51.473Z,99553.97
2019-03-11T10:22:21.725Z,99542.93
2019-03-11T10:24:51.926Z,99514.45
2019-03-11T10:27:22.125Z,99527.72
2019-03-11T10:29:52.379Z,99543.98
2019-03-11T10:32:22.584Z,99542.55
2019-03-11T10:34:54.123Z,99533.20
2019-03-11T10:37:24.707Z,99547.59
2019-03-11T10:39:55.318Z,99539.59
2019-03-11T10:42:25.619Z,99537.42
2019-03-11T10:44:57.084Z,99535.98
2019-03-11T10:47:27.849Z,99528.30
2019-03-11T10:49:58.146Z,99540.24
2019-03-11T10:52:28.348Z,99538.18
2019-03-11T10:54:58.923Z,99532.58
2019-03-11T10:57:29.571Z,99534.91
2019-03-11T11:00:00.377Z,99542.13
2019-03-11T11:02:30.774Z,99536.80
2019-03-11T11:05:02.012Z,99530.59
2019-03-11T11:07:32.566Z,99528.69
2019-03-11T11:10:03.534Z,99524.09
2019-03-11T11:12:33.740Z,99535.43
2019-03-11T11:15:09.282Z,99537.88
2019-03-11T11:17:39.852Z,99528.83
2019-03-11T11:20:12.965Z,99527.91
2019-03-11T11:22:43.677Z,99529.77
2019-03-11T11:25:25.558Z,99520.93
2019-03-11T11:27:56.453Z,99526.14
2019-03-11T11:30:30.064Z,99534.50
2019-03-11T11:33:01.364Z,99526.91
2019-03-11T11:35:31.877Z,99532.20
2019-03-11T11:38:02.514Z,99527.09
2019-03-11T11:40:33.229Z,99524.87
2019-03-11T11:43:03.635Z,99519.32
2019-03-11T11:45:34.130Z,99521.71
2019-03-11T11:48:05.003Z,99516.61
2019-03-11T11:50:35.259Z,99514.48
2019-03-11T11:53:05.488Z,99511.64
2019-03-11T11:55:36.371Z,99522.72
2019-03-11T11:58:06.967Z,99515.55
2019-03-11T12:00:41.537Z,99515.41
2019-03-11T12:03:12.108Z,99513.03
2019-03-11T12:05:42.445Z,99512.09
2019-03-11T12:08:12.958Z,99499.74
2019-03-11T12:10:43.224Z,99511.55
2019-03-11T12:13:13.678Z,99513.39
2019-03-11T12:15:43.879Z,99509.47
2019-03-11T12:18:14.100Z,99522.27
2019-03-11T12:20:44.314Z,99519.63
2019-03-11T12:23:14.554Z,99522.51
2019-03-11T12:25:44.816Z,99516.27
2019-03-11T12:28:15.107Z,99518.78
2019-03-11T12:30:45.667Z,99519.77
2019-03-11T12:33:15.951Z,99521.14
2019-03-11T12:35:46.626Z,99511.13
2019-03-11T12:38:16.898Z,99509.82
2019-03-11T12:40:47.470Z,99508.34
2019-03-11T12:43:17.745Z,99511.75
2019-03-11T12:45:48.314Z,99505.63
2019-03-11T12:48:18.583Z,99512.83
2019-03-11T12:50:48.804Z,99504.13
2019-03-11T12:53:19.006Z,99508.94
2019-03-11T12:55:49.257Z,99508.17
2019-03-11T12:58:19.940Z,99507.93
2019-03-11T13:00:50.315Z,99501.96
2019-03-11T13:03:20.564Z,99493.75
2019-03-11T13:05:50.845Z,99500.44
2019-03-11T13:08:21.063Z,99496.89
2019-03-11T13:10:51.317Z,99496.17
2019-03-11T13:13:21.598Z,99491.81
2019-03-11T13:15:52.227Z,99497.75
2019-03-11T13:18:38.571Z,99503.41
2019-03-11T13:21:14.676Z,99503.59
2019-03-11T13:23:45.261Z,99508.74
2019-03-11T13:26:15.530Z,99503.34
2019-03-11T13:28:46.084Z,99502.17
2019-03-11T13:31:16.716Z,99512.09
2019-03-11T13:33:47.032Z,99507.25
2019-03-11T13:36:18.824Z,99504.31
2019-03-11T13:38:49.475Z,99504.60
2019-03-11T13:41:20.113Z,99500.98
2019-03-11T13:43:50.403Z,99503.47
2019-03-11T13:46:20.976Z,99506.98
2019-03-11T13:48:51.767Z,99502.79
2019-03-11T13:51:22.013Z,99495.77
2019-03-11T13:53:52.222Z,99501.38
2019-03-11T13:56:22.428Z,99503.92
2019-03-11T13:58:52.631Z,99505.02
2019-03-11T14:01:23.181Z,99492.64
2019-03-11T14:03:53.482Z,99491.14
2019-03-11T14:06:23.696Z,99498.42
2019-03-11T14:08:53.907Z,99498.92
2019-03-11T14:11:24.494Z,99491.33
2019-03-11T14:13:54.855Z,99483.26
2019-03-11T14:16:25.440Z,99485.98
2019-03-11T14:18:55.739Z,99488.88
2019-03-11T14:21:26.262Z,99494.72
2019-03-11T14:23:56.666Z,99504.55
2019-03-11T14:26:28.411Z,99495.11
2019-03-11T14:28:58.801Z,99499.48
2019-03-11T14:31:29.379Z,99499.49
2019-03-11T14:34:00.190Z,99497.22
2019-03-11T14:36:30.453Z,99499.11
2019-03-11T14:39:00.690Z,99499.89
2019-03-11T14:41:32.958Z,99511.20
2019-03-11T14:44:03.213Z,99509.91
2019-03-11T14:46:33.468Z,99513.60
2019-03-11T14:49:03.759Z,99518.50
2019-03-11T14:51:33.960Z,99524.62
2019-03-11T14:54:04.256Z,99530.50
2019-03-11T14:56:34.482Z,99541.67
2019-03-11T14:59:05.090Z,99533.88
2019-03-11T15:01:35.338Z,99541.77
2019-03-11T15:04:06.554Z,99542.36
2019-03-11T15:06:36.749Z,99536.92
2019-03-11T15:09:07.147Z,99548.57
2019-03-11T15:11:37.913Z,99542.20
2019-03-11T15:14:08.545Z,99543.33
2019-03-11T15:16:39.194Z,99541.31
2019-03-11T15:19:09.852Z,99550.98
2019-03-11T15:21:44.785Z,99544.08
2019-03-11T15:24:15.088Z,99550.30
2019-03-11T15:26:45.928Z,99546.85
2019-03-11T15:29:16.500Z,99545.48
2019-03-11T15:31:46.977Z,99545.02
2019-03-11T15:34:17.136Z,99545.95
2019-03-11T15:36:47.373Z,99546.65
2019-03-11T15:39:19.586Z,99546.56
2019-03-11T15:41:50.907Z,99544.86
2019-03-11T15:44:24.529Z,99546.02
2019-03-11T15:46:56.563Z,99550.78
2019-03-11T15:49:26.688Z,99555.31
2019-03-11T15:51:58.368Z,99555.87
2019-03-11T15:54:28.603Z,99565.83
2019-03-11T15:56:59.197Z,99564.45
2019-03-11T15:59:29.829Z,99557.48
2019-03-11T16:02:00.107Z,99557.31
2019-03-11T16:04:30.333Z,99558.87
2019-03-11T16:07:00.613Z,99566.41
2019-03-11T16:09:31.168Z,99564.77
2019-03-11T16:12:01.540Z,99564.91
2019-03-11T16:14:31.751Z,99566.80
2019-03-11T16:17:02.092Z,99566.11
2019-03-11T16:19:32.843Z,99572.45
2019-03-11T16:22:03.068Z,99580.81
2019-03-11T16:24:33.271Z,99575.22
2019-03-11T16:27:03.493Z,99583.52
2019-03-11T16:29:34.105Z,99578.96
2019-03-11T16:32:04.451Z,99584.38
2019-03-11T16:34:34.650Z,99582.78
2019-03-11T16:37:04.853Z,99584.18
2019-03-11T16:39:35.096Z,99580.41
2019-03-11T16:42:05.299Z,99597.70
2019-03-11T16:44:35.533Z,99599.92
2019-03-11T16:47:06.103Z,99601.23
2019-03-11T16:49:36.410Z,99601.34
2019-03-11T16:52:06.622Z,99608.97
2019-03-11T16:54:38.028Z,99607.34
2019-03-11T16:57:08.248Z,99621.65
2019-03-11T16:59:38.494Z,99623.00
2019-03-11T17:02:08.754Z,99622.27
2019-03-11T17:04:38.989Z,99630.05
2019-03-11T17:07:09.575Z,99634.79
2019-03-11T17:09:39.875Z,99631.38
2019-03-11T17:12:10.193Z,99641.28
2019-03-11T17:14:40.411Z,99641.74
2019-03-11T17:17:11.044Z,99653.62
2019-03-11T17:19:41.369Z,99624.22
2019-03-11T17:22:11.938Z,99648.59
2019-03-11T17:24:42.254Z,99657.72
2019-03-11T17:27:12.467Z,99662.57
2019-03-11T17:29:42.787Z,99661.78
2019-03-11T17:32:13.011Z,99668.30
2019-03-11T17:34:43.654Z,99671.80
2019-03-11T17:37:15.460Z,99672.73
2019-03-11T17:39:46.158Z,99684.77
2019-03-11T17:42:17.222Z,99681.80
2019-03-11T17:44:48.038Z,99687.48
2019-03-11T17:47:18.314Z,99693.06
2019-03-11T17:49:48.901Z,99690.58
2019-03-11T17:52:20.543Z,99696.59
2019-03-11T17:54:50.791Z,99698.83
2019-03-11T17:57:21.433Z,99707.02
2019-03-11T17:59:52.225Z,99704.88
2019-03-11T18:02:22.688Z,99701.02
2019-03-11T18:04:53.617Z,99705.34
2019-03-11T18:07:25.152Z,99705.77
2019-03-11T18:09:55.433Z,99709.64
2019-03-11T18:12:25.798Z,99709.68
2019-03-11T18:14:56.257Z,99709.22
2019-03-11T18:17:26.463Z,99707.95
2019-03-11T18:19:56.700Z,99708.78
2019-03-11T18:22:26.912Z,99718.31
2019-03-11T18:24:57.173Z,99719.64
2019-03-11T18:27:27.391Z,99720.51
2019-03-11T18:29:57.648Z,99721.84
2019-03-11T18:32:27.870Z,99722.72
2019-03-11T18:34:58.105Z,99723.62
2019-03-11T18:37:28.360Z,99718.95
2019-03-11T18:39:58.621Z,99729.31
2019-03-11T18:42:29.225Z,99731.02
2019-03-11T18:45:00.461Z,99737.94
2019-03-11T18:47:31.390Z,99744.42
2019-03-11T18:50:01.937Z,99743.59
2019-03-11T18:52:33.308Z,99744.42
2019-03-11T18:55:04.260Z,99744.41
2019-03-11T18:57:34.417Z,99740.94
2019-03-11T19:00:07.763Z,99743.94
2019-03-11T19:02:38.535Z,99734.94
2019-03-11T19:05:13.184Z,99740.52
2019-03-11T19:07:45.698Z,99742.63
2019-03-11T19:10:16.587Z,99741.81
2019-03-11T19:12:47.274Z,99755.19
2019-03-11T19:15:21.069Z,99740.57
2019-03-11T19:17:51.431Z,99748.73
2019-03-11T19:20:26.695Z,99750.85
2019-03-11T19:22:57.437Z,99752.59
2019-03-11T19:25:27.776Z,99755.22
2019-03-11T19:27:57.988Z,99758.23
2019-03-11T19:30:29.466Z,99765.13
2019-03-11T19:33:00.346Z,99763.90
2019-03-11T19:35:32.399Z,99769.48
2019-03-11T19:38:02.829Z,99777.23
2019-03-11T19:40:34.372Z,99784.48
2019-03-11T19:43:05.150Z,99782.34
2019-03-11T19:45:38.623Z,99789.67
2019-03-11T19:48:11.678Z,99785.41
2019-03-11T19:50:42.047Z,99780.30
2019-03-11T19:53:12.774Z,99793.06
2019-03-11T19:55:43.046Z,99779.40
2019-03-11T19:58:13.660Z,99778.59
2019-03-11T20:00:43.989Z,99787.18
2019-03-11T20:03:26.458Z,99785.97
2019-03-11T20:05:46.280Z,99783.88
2019-03-11T20:08:16.525Z,99787.34
2019-03-11T20:10:47.213Z,99787.80
2019-03-11T20:13:19.277Z,99793.77
2019-03-11T20:15:49.561Z,99794.26
2019-03-11T20:18:19.868Z,99794.66
2019-03-11T20:20:50.767Z,99799.38
2019-03-11T20:23:21.865Z,99795.05
2019-03-11T20:25:52.103Z,99805.41
2019-03-11T20:28:22.448Z,99811.06
2019-03-11T20:30:53.277Z,99806.69
2019-03-11T20:33:23.421Z,99811.49
2019-03-11T20:35:53.640Z,99816.28
2019-03-11T20:38:24.167Z,99816.70
2019-03-11T20:40:55.985Z,99815.84
2019-03-11T20:43:26.328Z,99816.69
2019-03-11T20:45:56.620Z,99821.42
2019-03-11T20:48:26.871Z,99829.59
2019-03-11T20:50:57.122Z,99834.26
2019-03-11T20:53:31.211Z,99832.58
2019-03-11T20:56:01.406Z,99837.28
2019-03-11T20:58:32.449Z,99835.16
2019-03-11T21:01:03.143Z,99833.39
2019-03-11T21:03:33.536Z,99840.66
2019-03-11T21:06:08.314Z,99839.69
2019-03-11T21:08:40.942Z,99841.05
2019-03-11T21:11:11.326Z,99838.06
2019-03-11T21:13:41.508Z,99843.24
2019-03-11T21:16:11.857Z,99843.22
2019-03-11T21:18:42.402Z,99838.47
2019-03-11T21:21:13.174Z,99844.48
2019-03-11T21:23:43.456Z,99847.86
2019-03-11T21:26:13.843Z,99847.09
2019-03-11T21:28:44.157Z,99848.83
2019-03-11T21:31:18.350Z,99845.72
2019-03-11T21:33:58.018Z,99852.28
2019-03-11T21:36:21.013Z,99865.66
2019-03-11T21:38:51.631Z,99869.12
2019-03-11T21:41:22.001Z,99869.11
2019-03-11T21:43:52.350Z,99870.02
2019-03-11T21:46:22.911Z,99871.28
2019-03-11T21:48:53.245Z,99888.47
2019-03-11T21:51:24.171Z,99883.30
2019-03-11T21:53:54.737Z,99885.00
2019-03-11T21:56:25.363Z,99881.09
2019-03-11T21:58:56.459Z,99877.59
2019-03-11T22:01:26.782Z,99879.30
2019-03-11T22:03:57.164Z,99884.03
2019-03-11T22:06:30.580Z,99881.38
2019-03-11T22:08:59.749Z,99881.38
2019-03-11T22:11:30.709Z,99880.45
2019-03-11T22:14:01.025Z,99880.52
2019-03-11T22:16:31.583Z,99887.78
2019-03-11T22:19:02.379Z,99875.73
2019-03-11T22:21:32.703Z,99889.10
2019-03-11T22:24:03.034Z,99887.78
2019-03-11T22:26:33.792Z,99887.80
2019-03-11T22:29:04.480Z,99887.39
2019-03-11T22:31:34.795Z,99890.37
2019-03-11T22:34:05.009Z,99895.93
2019-03-11T22:36:35.218Z,99888.19
2019-03-11T22:39:07.094Z,99895.06
2019-03-11T22:41:37.652Z,99898.01
2019-03-11T22:44:08.296Z,99898.01
2019-03-11T22:46:38.578Z,99898.87
2019-03-11T22:49:09.210Z,99900.98
2019-03-11T22:51:39.508Z,99904.85
2019-03-11T22:54:09.717Z,99901.37
2019-03-11T22:56:40.097Z,99900.06
2019-03-11T22:59:10.687Z,99904.84
2019-03-11T23:01:42.098Z,99904.42
2019-03-11T23:04:14.198Z,99908.72
2019-03-11T23:06:45.368Z,99904.84
2019-03-11T23:09:16.368Z,99907.36
2019-03-11T23:11:47.204Z,99907.39
2019-03-11T23:14:17.462Z,99900.97
2019-03-11T23:16:47.974Z,99898.80
2019-03-11T23:19:19.354Z,99907.44
2019-03-11T23:21:49.567Z,99897.58
2019-03-11T23:24:21.371Z,99894.41
2019-03-11T23:26:52.069Z,99888.85
2019-03-11T23:29:22.737Z,99902.88
2019-03-11T23:31:53.357Z,99909.89
2019-03-11T23:34:23.743Z,99915.52
2019-03-11T23:36:54.320Z,99917.20
2019-03-11T23:39:24.601Z,99924.86
2019-03-11T23:41:55.193Z,99926.52
2019-03-11T23:44:25.486Z,99925.73
2019-03-11T23:46:56.063Z,99939.87
2019-03-11T23:49:26.350Z,99940.91
2019-03-11T23:51:56.910Z,99934.92
2019-03-11T23:54:27.210Z,99946.48
2019-03-11T23:56:57.774Z,99936.52
2019-03-11T23:59:28.408Z,99942.61
